sensor_id;sensor_type;location;lat;lon;timestamp;P1;durP1;ratioP1;P2;durP2;ratioP2
42096;SDS011;27754;45.414;11.084;2022-12-26T00:00:31;48.08;;;34.53;;
42096;SDS011;27754;45.414;11.084;2022-12-26T00:02:58;54.33;;;36.78;;
42096;SDS011;27754;45.414;11.084;2022-12-26T00:05:25;57.72;;;37.40;;
42096;SDS011;27754;45.414;11.084;2022-12-26T00:07:52;59.90;;;35.38;;
42096;SDS011;27754;45.414;11.084;2022-12-26T00:10:19;52.92;;;34.35;;
42096;SDS011;27754;45.414;11.084;2022-12-26T00:12:46;52.63;;;34.65;;
42096;SDS011;27754;45.414;11.084;2022-12-26T00:15:13;54.20;;;36.25;;
42096;SDS011;27754;45.414;11.084;2022-12-26T00:17:40;55.95;;;36.88;;
42096;SDS011;27754;45.414;11.084;2022-12-26T00:20:07;55.03;;;35.90;;
42096;SDS011;27754;45.414;11.084;2022-12-26T00:22:34;51.67;;;34.28;;
42096;SDS011;27754;45.414;11.084;2022-12-26T00:25:01;53.72;;;34.67;;
42096;SDS011;27754;45.414;11.084;2022-12-26T00:27:28;56.65;;;35.75;;
42096;SDS011;27754;45.414;11.084;2022-12-26T00:29:55;56.33;;;35.17;;
42096;SDS011;27754;45.414;11.084;2022-12-26T00:32:22;53.35;;;35.97;;
42096;SDS011;27754;45.414;11.084;2022-12-26T00:34:49;49.30;;;35.28;;
42096;SDS011;27754;45.414;11.084;2022-12-26T00:37:16;52.88;;;35.85;;
42096;SDS011;27754;45.414;11.084;2022-12-26T00:39:43;57.97;;;37.25;;
42096;SDS011;27754;45.414;11.084;2022-12-26T00:42:10;53.25;;;36.53;;
42096;SDS011;27754;45.414;11.084;2022-12-26T00:44:37;58.78;;;37.28;;
42096;SDS011;27754;45.414;11.084;2022-12-26T00:47:04;57.10;;;37.20;;
42096;SDS011;27754;45.414;11.084;2022-12-26T00:49:31;57.97;;;37.17;;
42096;SDS011;27754;45.414;11.084;2022-12-26T00:52:17;56.92;;;35.70;;
42096;SDS011;27754;45.414;11.084;2022-12-26T00:54:45;53.08;;;35.80;;
42096;SDS011;27754;45.414;11.084;2022-12-26T00:57:12;59.47;;;36.22;;
42096;SDS011;27754;45.414;11.084;2022-12-26T00:59:39;57.10;;;35.58;;
42096;SDS011;27754;45.414;11.084;2022-12-26T01:02:06;50.95;;;35.60;;
42096;SDS011;27754;45.414;11.084;2022-12-26T01:04:53;56.63;;;36.40;;
42096;SDS011;27754;45.414;11.084;2022-12-26T01:07:20;51.63;;;36.13;;
42096;SDS011;27754;45.414;11.084;2022-12-26T01:09:47;54.53;;;36.55;;
42096;SDS011;27754;45.414;11.084;2022-12-26T01:12:13;59.80;;;39.30;;
42096;SDS011;27754;45.414;11.084;2022-12-26T01:14:40;55.60;;;37.58;;
42096;SDS011;27754;45.414;11.084;2022-12-26T01:17:07;60.58;;;36.97;;
42096;SDS011;27754;45.414;11.084;2022-12-26T01:19:34;54.65;;;34.35;;
42096;SDS011;27754;45.414;11.084;2022-12-26T01:22:02;50.20;;;34.20;;
42096;SDS011;27754;45.414;11.084;2022-12-26T01:24:29;50.53;;;33.03;;
42096;SDS011;27754;45.414;11.084;2022-12-26T01:26:57;48.55;;;34.03;;
42096;SDS011;27754;45.414;11.084;2022-12-26T01:29:23;48.53;;;33.08;;
42096;SDS011;27754;45.414;11.084;2022-12-26T01:31:51;51.92;;;34.42;;
42096;SDS011;27754;45.414;11.084;2022-12-26T01:34:18;46.65;;;32.88;;
42096;SDS011;27754;45.414;11.084;2022-12-26T01:36:45;52.30;;;34.20;;
42096;SDS011;27754;45.414;11.084;2022-12-26T01:39:12;47.67;;;33.42;;
42096;SDS011;27754;45.414;11.084;2022-12-26T01:41:39;48.63;;;33.05;;
42096;SDS011;27754;45.414;11.084;2022-12-26T01:44:52;50.13;;;34.20;;
42096;SDS011;27754;45.414;11.084;2022-12-26T01:47:11;55.65;;;34.85;;
42096;SDS011;27754;45.414;11.084;2022-12-26T01:49:40;52.65;;;36.72;;
42096;SDS011;27754;45.414;11.084;2022-12-26T01:52:20;55.07;;;34.97;;
42096;SDS011;27754;45.414;11.084;2022-12-26T01:54:58;49.92;;;34.10;;
42096;SDS011;27754;45.414;11.084;2022-12-26T01:57:27;57.17;;;34.70;;
42096;SDS011;27754;45.414;11.084;2022-12-26T01:59:58;46.95;;;34.08;;
42096;SDS011;27754;45.414;11.084;2022-12-26T02:02:27;53.13;;;34.72;;
42096;SDS011;27754;45.414;11.084;2022-12-26T02:04:55;48.20;;;33.13;;
42096;SDS011;27754;45.414;11.084;2022-12-26T02:07:43;48.17;;;33.85;;
42096;SDS011;27754;45.414;11.084;2022-12-26T02:10:13;46.30;;;33.28;;
42096;SDS011;27754;45.414;11.084;2022-12-26T02:12:42;52.38;;;33.65;;
42096;SDS011;27754;45.414;11.084;2022-12-26T02:15:11;52.58;;;35.25;;
42096;SDS011;27754;45.414;11.084;2022-12-26T02:17:40;50.78;;;33.55;;
42096;SDS011;27754;45.414;11.084;2022-12-26T02:28:44;47.55;;;32.25;;
42096;SDS011;27754;45.414;11.084;2022-12-26T02:45:24;55.95;;;34.80;;
42096;SDS011;27754;45.414;11.084;2022-12-26T02:48:39;49.50;;;32.67;;
42096;SDS011;27754;45.414;11.084;2022-12-26T02:51:40;46.60;;;32.65;;
42096;SDS011;27754;45.414;11.084;2022-12-26T02:54:37;49.05;;;34.38;;
42096;SDS011;27754;45.414;11.084;2022-12-26T03:01:25;53.30;;;35.67;;
42096;SDS011;27754;45.414;11.084;2022-12-26T03:04:16;57.25;;;39.80;;
42096;SDS011;27754;45.414;11.084;2022-12-26T03:07:07;51.95;;;35.90;;
42096;SDS011;27754;45.414;11.084;2022-12-26T03:09:59;51.67;;;35.65;;
42096;SDS011;27754;45.414;11.084;2022-12-26T03:12:55;59.92;;;37.53;;
42096;SDS011;27754;45.414;11.084;2022-12-26T03:15:44;59.95;;;39.20;;
42096;SDS011;27754;45.414;11.084;2022-12-26T03:18:39;58.97;;;37.78;;
42096;SDS011;27754;45.414;11.084;2022-12-26T03:21:26;52.83;;;35.38;;
42096;SDS011;27754;45.414;11.084;2022-12-26T03:23:57;59.08;;;36.90;;
42096;SDS011;27754;45.414;11.084;2022-12-26T03:26:26;57.30;;;37.72;;
42096;SDS011;27754;45.414;11.084;2022-12-26T03:29:12;60.75;;;39.38;;
42096;SDS011;27754;45.414;11.084;2022-12-26T03:32:04;60.22;;;37.40;;
42096;SDS011;27754;45.414;11.084;2022-12-26T03:34:39;55.50;;;36.97;;
42096;SDS011;27754;45.414;11.084;2022-12-26T03:37:21;58.60;;;37.33;;
42096;SDS011;27754;45.414;11.084;2022-12-26T03:40:19;56.83;;;37.80;;
42096;SDS011;27754;45.414;11.084;2022-12-26T03:49:39;61.67;;;37.55;;
42096;SDS011;27754;45.414;11.084;2022-12-26T03:52:34;60.60;;;38.85;;
42096;SDS011;27754;45.414;11.084;2022-12-26T03:58:31;63.78;;;40.28;;
42096;SDS011;27754;45.414;11.084;2022-12-26T04:01:21;55.97;;;37.60;;
42096;SDS011;27754;45.414;11.084;2022-12-26T04:04:12;68.88;;;41.45;;
42096;SDS011;27754;45.414;11.084;2022-12-26T04:07:04;64.00;;;39.55;;
42096;SDS011;27754;45.414;11.084;2022-12-26T04:10:03;67.25;;;42.38;;
42096;SDS011;27754;45.414;11.084;2022-12-26T04:13:02;62.03;;;38.35;;
42096;SDS011;27754;45.414;11.084;2022-12-26T04:15:52;65.20;;;41.10;;
42096;SDS011;27754;45.414;11.084;2022-12-26T04:19:34;64.72;;;40.80;;
42096;SDS011;27754;45.414;11.084;2022-12-26T04:25:00;68.00;;;41.45;;
42096;SDS011;27754;45.414;11.084;2022-12-26T04:28:10;74.57;;;44.00;;
42096;SDS011;27754;45.414;11.084;2022-12-26T04:31:02;72.25;;;43.17;;
42096;SDS011;27754;45.414;11.084;2022-12-26T04:34:08;76.10;;;44.90;;
42096;SDS011;27754;45.414;11.084;2022-12-26T04:37:02;77.22;;;44.83;;
42096;SDS011;27754;45.414;11.084;2022-12-26T04:39:50;77.15;;;44.28;;
42096;SDS011;27754;45.414;11.084;2022-12-26T04:42:40;80.32;;;46.50;;
42096;SDS011;27754;45.414;11.084;2022-12-26T04:45:48;77.63;;;46.53;;
42096;SDS011;27754;45.414;11.084;2022-12-26T04:48:15;82.18;;;47.97;;
42096;SDS011;27754;45.414;11.084;2022-12-26T04:51:01;86.28;;;48.20;;
42096;SDS011;27754;45.414;11.084;2022-12-26T04:53:28;84.07;;;47.13;;
42096;SDS011;27754;45.414;11.084;2022-12-26T04:55:55;94.25;;;50.65;;
42096;SDS011;27754;45.414;11.084;2022-12-26T04:58:21;93.47;;;50.13;;
42096;SDS011;27754;45.414;11.084;2022-12-26T05:00:49;97.15;;;52.35;;
42096;SDS011;27754;45.414;11.084;2022-12-26T05:03:16;98.97;;;51.33;;
42096;SDS011;27754;45.414;11.084;2022-12-26T05:06:02;94.95;;;53.50;;
42096;SDS011;27754;45.414;11.084;2022-12-26T05:08:47;95.95;;;51.38;;
42096;SDS011;27754;45.414;11.084;2022-12-26T05:11:33;98.03;;;53.55;;
42096;SDS011;27754;45.414;11.084;2022-12-26T05:14:00;98.75;;;53.47;;
42096;SDS011;27754;45.414;11.084;2022-12-26T05:16:27;103.72;;;53.17;;
42096;SDS011;27754;45.414;11.084;2022-12-26T05:19:14;91.38;;;51.35;;
42096;SDS011;27754;45.414;11.084;2022-12-26T05:22:01;96.20;;;50.92;;
42096;SDS011;27754;45.414;11.084;2022-12-26T05:24:48;97.40;;;52.97;;
42096;SDS011;27754;45.414;11.084;2022-12-26T05:27:40;98.35;;;51.78;;
42096;SDS011;27754;45.414;11.084;2022-12-26T05:30:28;102.30;;;53.60;;
42096;SDS011;27754;45.414;11.084;2022-12-26T05:32:55;102.30;;;51.72;;
42096;SDS011;27754;45.414;11.084;2022-12-26T05:35:40;106.60;;;55.60;;
42096;SDS011;27754;45.414;11.084;2022-12-26T05:38:08;99.60;;;52.50;;
42096;SDS011;27754;45.414;11.084;2022-12-26T05:40:37;97.63;;;52.95;;
42096;SDS011;27754;45.414;11.084;2022-12-26T05:43:03;98.15;;;53.00;;
42096;SDS011;27754;45.414;11.084;2022-12-26T05:45:30;109.40;;;54.65;;
42096;SDS011;27754;45.414;11.084;2022-12-26T05:47:58;116.40;;;58.25;;
42096;SDS011;27754;45.414;11.084;2022-12-26T05:50:26;109.18;;;55.55;;
42096;SDS011;27754;45.414;11.084;2022-12-26T05:52:55;121.22;;;58.33;;
42096;SDS011;27754;45.414;11.084;2022-12-26T05:55:23;119.60;;;58.85;;
42096;SDS011;27754;45.414;11.084;2022-12-26T05:57:51;127.32;;;60.40;;
42096;SDS011;27754;45.414;11.084;2022-12-26T06:00:18;139.05;;;61.97;;
42096;SDS011;27754;45.414;11.084;2022-12-26T06:02:45;130.45;;;59.53;;
42096;SDS011;27754;45.414;11.084;2022-12-26T06:05:12;146.40;;;65.28;;
42096;SDS011;27754;45.414;11.084;2022-12-26T06:07:39;134.57;;;62.97;;
42096;SDS011;27754;45.414;11.084;2022-12-26T06:10:06;149.45;;;66.10;;
42096;SDS011;27754;45.414;11.084;2022-12-26T06:12:33;148.95;;;66.50;;
42096;SDS011;27754;45.414;11.084;2022-12-26T06:15:00;131.10;;;61.55;;
42096;SDS011;27754;45.414;11.084;2022-12-26T06:17:27;130.48;;;63.45;;
42096;SDS011;27754;45.414;11.084;2022-12-26T06:19:54;126.70;;;62.97;;
42096;SDS011;27754;45.414;11.084;2022-12-26T06:22:21;123.15;;;59.80;;
42096;SDS011;27754;45.414;11.084;2022-12-26T06:24:49;118.07;;;59.72;;
42096;SDS011;27754;45.414;11.084;2022-12-26T06:27:15;113.50;;;58.63;;
42096;SDS011;27754;45.414;11.084;2022-12-26T06:29:42;113.85;;;59.00;;
42096;SDS011;27754;45.414;11.084;2022-12-26T06:32:09;115.63;;;61.35;;
42096;SDS011;27754;45.414;11.084;2022-12-26T06:34:37;119.47;;;58.72;;
42096;SDS011;27754;45.414;11.084;2022-12-26T06:37:04;107.72;;;58.53;;
42096;SDS011;27754;45.414;11.084;2022-12-26T06:39:31;113.47;;;59.30;;
42096;SDS011;27754;45.414;11.084;2022-12-26T06:41:58;111.60;;;58.72;;
42096;SDS011;27754;45.414;11.084;2022-12-26T06:44:25;108.53;;;56.60;;
42096;SDS011;27754;45.414;11.084;2022-12-26T06:46:52;110.60;;;61.22;;
42096;SDS011;27754;45.414;11.084;2022-12-26T06:49:19;111.72;;;56.95;;
42096;SDS011;27754;45.414;11.084;2022-12-26T06:51:46;112.65;;;58.53;;
42096;SDS011;27754;45.414;11.084;2022-12-26T06:54:13;108.10;;;58.40;;
42096;SDS011;27754;45.414;11.084;2022-12-26T06:56:40;105.22;;;57.55;;
42096;SDS011;27754;45.414;11.084;2022-12-26T06:59:08;117.07;;;58.60;;
42096;SDS011;27754;45.414;11.084;2022-12-26T07:01:36;113.55;;;61.00;;
42096;SDS011;27754;45.414;11.084;2022-12-26T07:04:04;111.18;;;57.53;;
42096;SDS011;27754;45.414;11.084;2022-12-26T07:06:32;127.05;;;62.75;;
42096;SDS011;27754;45.414;11.084;2022-12-26T07:09:02;142.48;;;61.75;;
42096;SDS011;27754;45.414;11.084;2022-12-26T07:11:32;144.55;;;60.55;;
42096;SDS011;27754;45.414;11.084;2022-12-26T07:14:00;156.50;;;64.40;;
42096;SDS011;27754;45.414;11.084;2022-12-26T07:16:27;165.00;;;64.95;;
42096;SDS011;27754;45.414;11.084;2022-12-26T07:18:55;150.05;;;67.53;;
42096;SDS011;27754;45.414;11.084;2022-12-26T07:21:23;150.07;;;66.70;;
42096;SDS011;27754;45.414;11.084;2022-12-26T07:23:52;149.85;;;66.10;;
42096;SDS011;27754;45.414;11.084;2022-12-26T07:26:23;150.75;;;63.15;;
42096;SDS011;27754;45.414;11.084;2022-12-26T07:28:54;142.77;;;64.53;;
42096;SDS011;27754;45.414;11.084;2022-12-26T07:31:23;136.60;;;62.08;;
42096;SDS011;27754;45.414;11.084;2022-12-26T07:33:52;140.20;;;63.97;;
42096;SDS011;27754;45.414;11.084;2022-12-26T07:36:21;132.23;;;61.42;;
42096;SDS011;27754;45.414;11.084;2022-12-26T07:38:51;143.70;;;61.10;;
42096;SDS011;27754;45.414;11.084;2022-12-26T07:41:18;149.40;;;62.65;;
42096;SDS011;27754;45.414;11.084;2022-12-26T07:44:04;131.15;;;59.78;;
42096;SDS011;27754;45.414;11.084;2022-12-26T07:46:31;146.77;;;64.70;;
42096;SDS011;27754;45.414;11.084;2022-12-26T07:48:59;130.57;;;62.17;;
42096;SDS011;27754;45.414;11.084;2022-12-26T07:51:26;144.60;;;63.53;;
42096;SDS011;27754;45.414;11.084;2022-12-26T07:53:53;142.50;;;61.13;;
42096;SDS011;27754;45.414;11.084;2022-12-26T07:56:21;133.55;;;63.67;;
42096;SDS011;27754;45.414;11.084;2022-12-26T07:58:49;131.70;;;62.10;;
42096;SDS011;27754;45.414;11.084;2022-12-26T08:01:17;136.90;;;64.07;;
42096;SDS011;27754;45.414;11.084;2022-12-26T08:03:46;127.00;;;62.83;;
42096;SDS011;27754;45.414;11.084;2022-12-26T08:06:15;129.38;;;63.60;;
42096;SDS011;27754;45.414;11.084;2022-12-26T08:08:46;134.25;;;61.72;;
42096;SDS011;27754;45.414;11.084;2022-12-26T08:11:17;123.85;;;62.47;;
42096;SDS011;27754;45.414;11.084;2022-12-26T08:13:49;136.90;;;62.50;;
42096;SDS011;27754;45.414;11.084;2022-12-26T08:16:17;128.02;;;62.53;;
42096;SDS011;27754;45.414;11.084;2022-12-26T08:18:45;129.38;;;63.10;;
42096;SDS011;27754;45.414;11.084;2022-12-26T08:21:12;126.55;;;63.83;;
42096;SDS011;27754;45.414;11.084;2022-12-26T08:23:39;134.50;;;66.38;;
42096;SDS011;27754;45.414;11.084;2022-12-26T08:26:08;115.20;;;62.47;;
42096;SDS011;27754;45.414;11.084;2022-12-26T08:28:40;127.78;;;63.22;;
42096;SDS011;27754;45.414;11.084;2022-12-26T08:31:09;126.88;;;61.65;;
42096;SDS011;27754;45.414;11.084;2022-12-26T08:33:37;141.38;;;75.35;;
42096;SDS011;27754;45.414;11.084;2022-12-26T08:36:05;126.57;;;61.50;;
42096;SDS011;27754;45.414;11.084;2022-12-26T08:38:34;116.88;;;60.72;;
42096;SDS011;27754;45.414;11.084;2022-12-26T08:41:02;110.85;;;58.53;;
42096;SDS011;27754;45.414;11.084;2022-12-26T08:43:29;107.53;;;58.65;;
42096;SDS011;27754;45.414;11.084;2022-12-26T08:46:17;111.47;;;61.53;;
42096;SDS011;27754;45.414;11.084;2022-12-26T08:48:46;115.82;;;59.65;;
42096;SDS011;27754;45.414;11.084;2022-12-26T08:51:15;117.20;;;59.70;;
42096;SDS011;27754;45.414;11.084;2022-12-26T08:53:44;111.97;;;61.55;;
42096;SDS011;27754;45.414;11.084;2022-12-26T08:56:13;111.88;;;60.20;;
42096;SDS011;27754;45.414;11.084;2022-12-26T08:58:42;111.22;;;62.10;;
42096;SDS011;27754;45.414;11.084;2022-12-26T09:01:13;115.10;;;61.65;;
42096;SDS011;27754;45.414;11.084;2022-12-26T09:03:45;110.97;;;57.63;;
42096;SDS011;27754;45.414;11.084;2022-12-26T09:06:14;111.78;;;58.70;;
42096;SDS011;27754;45.414;11.084;2022-12-26T09:08:41;106.55;;;59.17;;
42096;SDS011;27754;45.414;11.084;2022-12-26T09:11:12;114.10;;;62.47;;
42096;SDS011;27754;45.414;11.084;2022-12-26T09:13:41;105.90;;;59.92;;
42096;SDS011;27754;45.414;11.084;2022-12-26T09:16:14;103.97;;;60.13;;
42096;SDS011;27754;45.414;11.084;2022-12-26T09:18:43;97.68;;;55.28;;
42096;SDS011;27754;45.414;11.084;2022-12-26T09:21:12;101.30;;;57.58;;
42096;SDS011;27754;45.414;11.084;2022-12-26T09:23:41;98.72;;;55.42;;
42096;SDS011;27754;45.414;11.084;2022-12-26T09:26:14;100.10;;;55.40;;
42096;SDS011;27754;45.414;11.084;2022-12-26T09:28:43;100.22;;;58.78;;
42096;SDS011;27754;45.414;11.084;2022-12-26T09:31:13;97.05;;;58.10;;
42096;SDS011;27754;45.414;11.084;2022-12-26T09:33:42;95.65;;;58.55;;
42096;SDS011;27754;45.414;11.084;2022-12-26T09:36:11;106.63;;;63.70;;
42096;SDS011;27754;45.414;11.084;2022-12-26T09:38:58;113.80;;;69.38;;
42096;SDS011;27754;45.414;11.084;2022-12-26T09:47:06;95.55;;;56.22;;
42096;SDS011;27754;45.414;11.084;2022-12-26T09:49:46;102.07;;;61.15;;
42096;SDS011;27754;45.414;11.084;2022-12-26T09:52:20;105.15;;;63.42;;
42096;SDS011;27754;45.414;11.084;2022-12-26T09:54:53;114.40;;;67.32;;
42096;SDS011;27754;45.414;11.084;2022-12-26T09:57:34;109.53;;;63.15;;
42096;SDS011;27754;45.414;11.084;2022-12-26T10:00:10;111.05;;;63.22;;
42096;SDS011;27754;45.414;11.084;2022-12-26T10:02:48;114.82;;;63.50;;
42096;SDS011;27754;45.414;11.084;2022-12-26T10:05:22;105.65;;;62.08;;
42096;SDS011;27754;45.414;11.084;2022-12-26T10:08:01;99.63;;;54.85;;
42096;SDS011;27754;45.414;11.084;2022-12-26T10:10:50;111.15;;;62.83;;
42096;SDS011;27754;45.414;11.084;2022-12-26T10:13:29;104.10;;;58.33;;
42096;SDS011;27754;45.414;11.084;2022-12-26T10:19:01;190.57;;;103.22;;
42096;SDS011;27754;45.414;11.084;2022-12-26T10:21:48;127.60;;;74.43;;
42096;SDS011;27754;45.414;11.084;2022-12-26T10:24:28;96.97;;;53.25;;
42096;SDS011;27754;45.414;11.084;2022-12-26T10:26:59;99.57;;;59.35;;
42096;SDS011;27754;45.414;11.084;2022-12-26T10:29:36;93.75;;;53.92;;
42096;SDS011;27754;45.414;11.084;2022-12-26T10:32:07;89.13;;;53.33;;
42096;SDS011;27754;45.414;11.084;2022-12-26T10:34:41;94.50;;;51.97;;
42096;SDS011;27754;45.414;11.084;2022-12-26T10:37:26;88.57;;;51.40;;
42096;SDS011;27754;45.414;11.084;2022-12-26T10:39:59;95.88;;;53.38;;
42096;SDS011;27754;45.414;11.084;2022-12-26T10:42:36;101.80;;;57.47;;
42096;SDS011;27754;45.414;11.084;2022-12-26T10:48:04;94.82;;;53.45;;
42096;SDS011;27754;45.414;11.084;2022-12-26T10:50:32;88.35;;;51.05;;
42096;SDS011;27754;45.414;11.084;2022-12-26T10:53:02;95.45;;;55.58;;
42096;SDS011;27754;45.414;11.084;2022-12-26T10:55:32;91.18;;;52.28;;
42096;SDS011;27754;45.414;11.084;2022-12-26T10:58:05;91.55;;;52.75;;
42096;SDS011;27754;45.414;11.084;2022-12-26T11:00:55;90.38;;;50.30;;
42096;SDS011;27754;45.414;11.084;2022-12-26T11:03:24;87.07;;;52.33;;
42096;SDS011;27754;45.414;11.084;2022-12-26T11:05:52;89.30;;;51.28;;
42096;SDS011;27754;45.414;11.084;2022-12-26T11:08:45;85.35;;;48.63;;
42096;SDS011;27754;45.414;11.084;2022-12-26T11:11:30;82.50;;;47.13;;
42096;SDS011;27754;45.414;11.084;2022-12-26T11:17:01;91.53;;;50.88;;
42096;SDS011;27754;45.414;11.084;2022-12-26T11:19:40;90.70;;;48.85;;
42096;SDS011;27754;45.414;11.084;2022-12-26T11:22:28;84.22;;;49.45;;
42096;SDS011;27754;45.414;11.084;2022-12-26T11:27:53;72.93;;;45.88;;
42096;SDS011;27754;45.414;11.084;2022-12-26T11:33:03;79.75;;;46.80;;
42096;SDS011;27754;45.414;11.084;2022-12-26T11:35:53;79.68;;;48.33;;
42096;SDS011;27754;45.414;11.084;2022-12-26T11:38:21;85.28;;;49.15;;
42096;SDS011;27754;45.414;11.084;2022-12-26T11:49:18;75.50;;;47.28;;
42096;SDS011;27754;45.414;11.084;2022-12-26T11:51:50;78.88;;;48.63;;
42096;SDS011;27754;45.414;11.084;2022-12-26T11:54:26;82.85;;;47.60;;
42096;SDS011;27754;45.414;11.084;2022-12-26T11:57:00;86.78;;;51.60;;
42096;SDS011;27754;45.414;11.084;2022-12-26T11:59:37;84.35;;;49.60;;
42096;SDS011;27754;45.414;11.084;2022-12-26T12:02:38;80.75;;;48.50;;
42096;SDS011;27754;45.414;11.084;2022-12-26T12:05:03;78.80;;;47.50;;
42096;SDS011;27754;45.414;11.084;2022-12-26T12:10:33;74.07;;;47.22;;
42096;SDS011;27754;45.414;11.084;2022-12-26T12:13:20;72.00;;;46.22;;
42096;SDS011;27754;45.414;11.084;2022-12-26T12:18:58;65.30;;;42.75;;
42096;SDS011;27754;45.414;11.084;2022-12-26T12:21:51;70.85;;;44.92;;
42096;SDS011;27754;45.414;11.084;2022-12-26T12:32:44;53.58;;;37.83;;
42096;SDS011;27754;45.414;11.084;2022-12-26T12:45:48;59.10;;;40.83;;
42096;SDS011;27754;45.414;11.084;2022-12-26T13:02:09;63.35;;;42.05;;
42096;SDS011;27754;45.414;11.084;2022-12-26T13:05:10;70.85;;;43.30;;
42096;SDS011;27754;45.414;11.084;2022-12-26T13:07:48;71.45;;;43.33;;
42096;SDS011;27754;45.414;11.084;2022-12-26T13:10:30;70.97;;;43.60;;
42096;SDS011;27754;45.414;11.084;2022-12-26T13:13:03;68.40;;;43.03;;
42096;SDS011;27754;45.414;11.084;2022-12-26T13:15:45;67.35;;;45.65;;
42096;SDS011;27754;45.414;11.084;2022-12-26T13:18:20;66.50;;;43.95;;
42096;SDS011;27754;45.414;11.084;2022-12-26T13:20:52;65.90;;;43.30;;
42096;SDS011;27754;45.414;11.084;2022-12-26T13:23:24;67.88;;;45.08;;
42096;SDS011;27754;45.414;11.084;2022-12-26T13:26:16;71.10;;;43.72;;
42096;SDS011;27754;45.414;11.084;2022-12-26T13:28:48;74.40;;;48.28;;
42096;SDS011;27754;45.414;11.084;2022-12-26T13:31:21;68.20;;;45.35;;
42096;SDS011;27754;45.414;11.084;2022-12-26T13:33:49;74.50;;;47.25;;
42096;SDS011;27754;45.414;11.084;2022-12-26T13:36:33;70.75;;;48.22;;
42096;SDS011;27754;45.414;11.084;2022-12-26T13:42:01;74.18;;;45.63;;
42096;SDS011;27754;45.414;11.084;2022-12-26T13:50:56;77.90;;;47.25;;
42096;SDS011;27754;45.414;11.084;2022-12-26T13:53:27;74.60;;;45.40;;
42096;SDS011;27754;45.414;11.084;2022-12-26T14:04:53;83.95;;;51.40;;
42096;SDS011;27754;45.414;11.084;2022-12-26T14:07:51;79.90;;;48.47;;
42096;SDS011;27754;45.414;11.084;2022-12-26T14:18:41;78.78;;;50.65;;
42096;SDS011;27754;45.414;11.084;2022-12-26T14:21:42;79.30;;;49.10;;
42096;SDS011;27754;45.414;11.084;2022-12-26T14:24:24;78.75;;;49.20;;
42096;SDS011;27754;45.414;11.084;2022-12-26T14:29:38;77.20;;;48.92;;
42096;SDS011;27754;45.414;11.084;2022-12-26T14:38:39;84.18;;;51.58;;
42096;SDS011;27754;45.414;11.084;2022-12-26T14:41:17;88.28;;;53.03;;
42096;SDS011;27754;45.414;11.084;2022-12-26T14:44:16;93.88;;;56.60;;
42096;SDS011;27754;45.414;11.084;2022-12-26T14:47:03;91.45;;;54.38;;
42096;SDS011;27754;45.414;11.084;2022-12-26T14:54:53;91.13;;;53.95;;
42096;SDS011;27754;45.414;11.084;2022-12-26T15:00:12;94.15;;;53.92;;
42096;SDS011;27754;45.414;11.084;2022-12-26T15:03:23;94.95;;;56.53;;
42096;SDS011;27754;45.414;11.084;2022-12-26T15:05:47;94.13;;;53.72;;
42096;SDS011;27754;45.414;11.084;2022-12-26T15:28:32;89.43;;;53.38;;
42096;SDS011;27754;45.414;11.084;2022-12-26T15:44:41;97.15;;;56.25;;
42096;SDS011;27754;45.414;11.084;2022-12-26T15:47:36;95.25;;;55.78;;
42096;SDS011;27754;45.414;11.084;2022-12-26T15:56:09;91.32;;;54.42;;
42096;SDS011;27754;45.414;11.084;2022-12-26T16:01:53;97.25;;;56.03;;
42096;SDS011;27754;45.414;11.084;2022-12-26T16:10:28;99.65;;;55.70;;
42096;SDS011;27754;45.414;11.084;2022-12-26T16:15:55;99.85;;;58.38;;
42096;SDS011;27754;45.414;11.084;2022-12-26T16:18:30;93.10;;;55.25;;
42096;SDS011;27754;45.414;11.084;2022-12-26T16:20:59;95.20;;;56.15;;
42096;SDS011;27754;45.414;11.084;2022-12-26T16:23:47;94.53;;;55.85;;
42096;SDS011;27754;45.414;11.084;2022-12-26T16:26:27;91.68;;;55.60;;
42096;SDS011;27754;45.414;11.084;2022-12-26T16:28:57;96.35;;;55.78;;
42096;SDS011;27754;45.414;11.084;2022-12-26T16:31:27;92.32;;;55.20;;
42096;SDS011;27754;45.414;11.084;2022-12-26T16:33:56;94.38;;;54.72;;
42096;SDS011;27754;45.414;11.084;2022-12-26T16:36:25;95.07;;;59.40;;
42096;SDS011;27754;45.414;11.084;2022-12-26T16:38:54;96.45;;;57.05;;
42096;SDS011;27754;45.414;11.084;2022-12-26T16:43:49;90.90;;;56.40;;
42096;SDS011;27754;45.414;11.084;2022-12-26T16:46:17;99.60;;;57.08;;
42096;SDS011;27754;45.414;11.084;2022-12-26T16:48:47;94.50;;;56.53;;
42096;SDS011;27754;45.414;11.084;2022-12-26T16:54:15;99.90;;;58.38;;
42096;SDS011;27754;45.414;11.084;2022-12-26T16:57:02;92.90;;;55.35;;
42096;SDS011;27754;45.414;11.084;2022-12-26T16:59:34;99.85;;;59.08;;
42096;SDS011;27754;45.414;11.084;2022-12-26T17:02:22;92.10;;;55.63;;
42096;SDS011;27754;45.414;11.084;2022-12-26T17:04:59;97.32;;;60.00;;
42096;SDS011;27754;45.414;11.084;2022-12-26T17:07:32;101.55;;;58.65;;
42096;SDS011;27754;45.414;11.084;2022-12-26T17:10:04;102.38;;;56.55;;
42096;SDS011;27754;45.414;11.084;2022-12-26T17:12:39;91.20;;;55.83;;
42096;SDS011;27754;45.414;11.084;2022-12-26T17:15:06;96.80;;;56.08;;
42096;SDS011;27754;45.414;11.084;2022-12-26T17:17:35;93.60;;;54.30;;
42096;SDS011;27754;45.414;11.084;2022-12-26T17:22:56;96.88;;;56.67;;
42096;SDS011;27754;45.414;11.084;2022-12-26T17:30:34;95.45;;;57.92;;
42096;SDS011;27754;45.414;11.084;2022-12-26T17:33:19;99.15;;;58.85;;
42096;SDS011;27754;45.414;11.084;2022-12-26T17:35:54;98.55;;;57.22;;
42096;SDS011;27754;45.414;11.084;2022-12-26T17:38:56;102.53;;;60.75;;
42096;SDS011;27754;45.414;11.084;2022-12-26T17:41:34;99.70;;;58.42;;
42096;SDS011;27754;45.414;11.084;2022-12-26T17:44:01;88.20;;;54.55;;
42096;SDS011;27754;45.414;11.084;2022-12-26T17:46:48;94.13;;;55.90;;
42096;SDS011;27754;45.414;11.084;2022-12-26T17:49:15;94.05;;;55.75;;
42096;SDS011;27754;45.414;11.084;2022-12-26T17:51:42;91.75;;;54.45;;
42096;SDS011;27754;45.414;11.084;2022-12-26T17:54:18;85.07;;;52.25;;
42096;SDS011;27754;45.414;11.084;2022-12-26T17:56:45;89.00;;;53.30;;
42096;SDS011;27754;45.414;11.084;2022-12-26T17:59:12;82.40;;;53.50;;
42096;SDS011;27754;45.414;11.084;2022-12-26T18:01:39;88.18;;;52.97;;
42096;SDS011;27754;45.414;11.084;2022-12-26T18:04:06;90.75;;;55.72;;
42096;SDS011;27754;45.414;11.084;2022-12-26T18:06:33;92.10;;;56.67;;
42096;SDS011;27754;45.414;11.084;2022-12-26T18:09:00;92.85;;;57.42;;
42096;SDS011;27754;45.414;11.084;2022-12-26T18:11:27;96.03;;;58.47;;
42096;SDS011;27754;45.414;11.084;2022-12-26T18:13:54;93.45;;;58.08;;
42096;SDS011;27754;45.414;11.084;2022-12-26T18:16:21;96.35;;;56.63;;
42096;SDS011;27754;45.414;11.084;2022-12-26T18:18:53;100.28;;;58.58;;
42096;SDS011;27754;45.414;11.084;2022-12-26T18:21:20;102.60;;;61.28;;